Rice, Minnesota
Current Conditions -  °F | °C
As of 2:17 PM on Thursday 23 Oct 2014 (Local Time) from KLXL Reporting Station
Clear Clear  
Wind Chill: 63°   Ceiling: Unl
Heat Index: 63°   Visibility: 10mi
Dew Point: 46°   Wind: 0mph
Humidity: 55%   Direction: NA
Pressure: 29.94"   Gusts: NA
Location:  45.75°N, 94.22°W
Report Text: KLXL 231917Z AUTO 00000KT 10SM CLR 17/08 A2994 RMK AO2
Loading
Personal Weather Stations






























Interactive Weather Map
Tropical Storm Tracking
New forecast layout! Learn more

10-Day Weather Forecast

Advertisements
Track Severe Weather on mobile